createdAt,value
2018-03-11T07:35:15.807Z,36.95
2018-03-11T07:36:15.771Z,39.68
2018-03-11T07:37:15.799Z,40.99
2018-03-11T07:38:15.790Z,43.17
2018-03-11T07:39:15.794Z,45.52
2018-03-11T07:40:15.888Z,46.55
2018-03-11T07:41:15.856Z,47.42
2018-03-11T07:42:15.842Z,46.75
2018-03-11T07:43:15.847Z,46.77
2018-03-11T07:44:15.877Z,47.06
2018-03-11T07:45:15.869Z,47.06
2018-03-11T07:46:15.922Z,47.34
2018-03-11T07:47:15.898Z,46.96
2018-03-11T07:48:15.916Z,47.32
2018-03-11T07:49:15.930Z,47.73
2018-03-11T07:50:15.933Z,49.14
2018-03-11T07:51:15.981Z,49.69
2018-03-11T07:52:15.993Z,51.29
2018-03-11T07:53:15.980Z,51.29
2018-03-11T07:54:15.994Z,51.22
2018-03-11T07:55:16.009Z,51.22
2018-03-11T07:56:16.014Z,50.46
2018-03-11T07:57:16.074Z,51.32
2018-03-11T07:58:16.068Z,50.36
2018-03-11T07:59:16.063Z,50.46
2018-03-11T08:00:16.089Z,50.65
2018-03-11T08:01:17.430Z,50.48
2018-03-11T08:02:16.164Z,50.74
2018-03-11T08:03:16.117Z,50.58
2018-03-11T08:04:16.126Z,50.93
2018-03-11T08:05:16.139Z,50.58
2018-03-11T08:06:16.174Z,51.03
2018-03-11T08:07:16.217Z,51.32
2018-03-11T08:08:16.214Z,53.49
2018-03-11T08:09:16.210Z,53.59
2018-03-11T08:10:16.219Z,53.75
2018-03-11T08:11:16.231Z,55.29
2018-03-11T08:12:16.285Z,54.16
2018-03-11T08:13:16.286Z,53.78
2018-03-11T08:14:16.275Z,54.16
2018-03-11T08:15:16.293Z,54.80
2018-03-11T08:16:16.307Z,54.61
2018-03-11T08:17:16.336Z,55.96
2018-03-11T08:18:16.375Z,55.02
2018-03-11T08:19:16.343Z,54.74
2018-03-11T08:20:16.436Z,54.55
2018-03-11T08:21:16.389Z,54.55
2018-03-11T08:22:16.391Z,54.55
2018-03-11T08:23:16.439Z,54.74
2018-03-11T08:24:16.550Z,54.93
2018-03-11T08:25:16.434Z,54.64
2018-03-11T08:26:16.446Z,54.57
2018-03-11T08:27:16.475Z,53.23
2018-03-11T08:28:16.480Z,52.66
2018-03-11T08:29:16.515Z,52.59
2018-03-11T08:30:16.514Z,53.26
2018-03-11T08:31:16.563Z,53.36
2018-03-11T08:32:16.528Z,52.50
2018-03-11T08:33:16.607Z,52.42
2018-03-11T08:34:16.583Z,51.46
2018-03-11T08:35:16.606Z,51.18
2018-03-11T08:36:16.649Z,50.51
2018-03-11T08:37:16.615Z,50.15
2018-03-11T08:38:16.626Z,50.03
2018-03-11T08:39:16.675Z,49.86
2018-03-11T08:40:16.671Z,49.38
2018-03-11T08:41:16.694Z,49.96
2018-03-11T08:42:16.710Z,50.43
2018-03-11T08:43:16.705Z,51.40
2018-03-11T08:44:16.713Z,51.28
2018-03-11T08:45:16.731Z,51.75
2018-03-11T08:46:16.782Z,51.65
2018-03-11T08:47:16.873Z,51.56
2018-03-11T08:48:16.785Z,51.28
2018-03-11T08:49:16.802Z,51.56
2018-03-11T08:50:16.843Z,53.09
2018-03-11T08:51:16.835Z,54.22
2018-03-11T08:52:16.879Z,55.05
2018-03-11T08:53:16.864Z,55.91
2018-03-11T08:54:16.904Z,56.37
2018-03-11T08:55:16.903Z,57.32
2018-03-11T08:56:16.898Z,57.70
2018-03-11T08:57:16.956Z,58.34
2018-03-11T08:58:17.013Z,59.30
2018-03-11T08:59:17.012Z,59.49
2018-03-11T09:00:16.977Z,59.59
2018-03-11T09:01:17.024Z,59.88
2018-03-11T09:02:17.045Z,60.13
2018-03-11T09:03:17.003Z,60.90
2018-03-11T09:04:17.025Z,61.57
2018-03-11T09:05:17.050Z,61.19
2018-03-11T09:06:17.059Z,61.57
2018-03-11T09:07:17.136Z,62.04
2018-03-11T09:08:17.078Z,61.95
2018-03-11T09:09:17.131Z,62.62
2018-03-11T09:10:17.148Z,62.71
2018-03-11T09:11:17.120Z,63.19
2018-03-11T12:34:26.704Z,43.49
2018-03-11T12:35:26.622Z,44.82
2018-03-11T12:36:26.630Z,45.66
2018-03-11T12:37:26.637Z,47.20
2018-03-11T12:38:26.659Z,47.66
2018-03-11T12:39:26.675Z,48.23
2018-03-11T12:40:26.687Z,48.59
2018-03-11T12:41:26.707Z,48.79
2018-03-11T12:42:26.677Z,50.03
2018-03-11T12:43:26.687Z,49.84
2018-03-11T12:44:26.708Z,49.91
2018-03-11T12:45:26.716Z,50.20
2018-03-11T12:46:26.758Z,50.29
2018-03-11T12:47:26.735Z,51.35
2018-03-11T12:48:26.759Z,51.35
2018-03-11T12:49:26.766Z,51.51
2018-03-11T12:50:26.771Z,52.09
2018-03-11T12:51:26.827Z,52.38
2018-03-11T12:52:26.802Z,53.34
2018-03-11T12:53:26.839Z,54.30
2018-03-11T12:54:26.822Z,53.05
2018-03-11T12:55:26.888Z,54.56
2018-03-11T12:56:26.858Z,54.08
2018-03-11T12:57:26.845Z,54.46
2018-03-11T12:58:26.847Z,54.75
2018-03-11T12:59:26.863Z,55.90
2018-03-11T13:00:26.909Z,55.42
2018-03-11T13:01:26.891Z,55.42
2018-03-11T13:02:26.919Z,56.19
2018-03-11T13:03:26.922Z,55.97
2018-03-11T13:04:26.925Z,56.19
2018-03-11T13:05:26.989Z,56.16
2018-03-11T13:06:27.028Z,56.38
2018-03-11T13:07:26.969Z,55.97
2018-03-11T13:08:26.982Z,55.87
2018-03-11T13:09:27.034Z,55.97
2018-03-11T13:10:27.062Z,56.54
2018-03-11T13:11:27.018Z,56.93
2018-03-11T13:12:27.046Z,56.83
2018-03-11T13:13:27.052Z,56.74
2018-03-11T13:14:27.067Z,56.64
2018-03-11T13:15:27.096Z,56.64
2018-03-11T13:16:27.123Z,56.45
2018-03-11T13:17:27.128Z,56.83
2018-03-11T13:18:27.112Z,56.54
2018-03-11T13:19:27.160Z,57.12
2018-03-11T13:20:27.222Z,56.54
2018-03-11T13:21:27.178Z,57.31
2018-03-11T13:22:27.157Z,57.31
2018-03-11T13:23:27.172Z,57.12
2018-03-11T13:24:27.194Z,56.83
2018-03-11T13:25:27.288Z,57.31
2018-03-11T13:26:27.228Z,56.54
2018-03-11T13:27:27.232Z,57.21
2018-03-11T13:28:27.302Z,57.63
2018-03-11T13:29:27.261Z,57.21
2018-03-11T13:30:27.274Z,57.03
2018-03-11T13:31:27.292Z,57.12
2018-03-11T13:32:27.294Z,57.21
2018-03-11T13:33:27.357Z,56.86
2018-03-11T13:34:27.326Z,56.54
2018-03-11T13:35:27.358Z,56.48
2018-03-11T13:36:27.354Z,56.57
2018-03-11T13:37:27.359Z,56.86
2018-03-11T13:38:27.487Z,56.86
2018-03-11T13:39:27.394Z,56.57
2018-03-11T13:40:27.428Z,56.57
2018-03-11T13:41:27.415Z,56.86
2018-03-11T13:42:27.460Z,57.06
2018-03-11T13:43:27.517Z,56.67
2018-03-11T13:44:27.507Z,57.34
2018-03-11T13:45:27.473Z,56.29
2018-03-11T13:46:27.627Z,56.00
2018-03-11T13:47:27.500Z,56.38
2018-03-11T13:48:27.516Z,56.57
2018-03-11T13:49:27.539Z,56.67
2018-03-11T13:50:27.552Z,56.38
2018-03-11T13:51:27.556Z,56.48
2018-03-11T13:52:27.640Z,56.38
2018-03-11T13:53:27.578Z,56.96
2018-03-11T13:54:27.605Z,55.80
2018-03-11T13:55:27.609Z,56.19
2018-03-11T13:56:27.646Z,55.71
2018-03-11T13:57:27.696Z,56.09
2018-03-11T13:58:27.671Z,56.19
2018-03-11T13:59:27.684Z,56.67
2018-03-11T14:00:27.674Z,56.57
2018-03-11T14:01:27.697Z,56.86
2018-03-11T14:02:27.735Z,56.48
2018-03-11T14:03:27.770Z,56.09
2018-03-11T14:04:27.894Z,56.57
2018-03-11T14:05:27.770Z,55.80
2018-03-11T14:06:27.907Z,56.57
2018-03-11T14:07:27.864Z,56.19
2018-03-11T14:08:27.815Z,56.12
2018-03-11T14:09:27.863Z,56.22
2018-03-11T14:10:27.834Z,56.31
2018-03-11T14:11:27.879Z,56.09
2018-03-11T14:12:27.889Z,56.22
2018-03-11T14:13:27.998Z,55.93
2018-03-11T14:14:27.892Z,56.51
2018-03-11T14:15:27.913Z,55.83
2018-03-11T14:16:27.915Z,55.83
2018-03-11T14:17:27.930Z,56.51
2018-03-11T14:18:27.951Z,56.02
2018-03-11T14:19:27.996Z,56.02
2018-03-11T14:20:27.977Z,55.35
2018-03-11T14:21:27.990Z,56.22
2018-03-11T14:22:28.005Z,55.83
2018-03-11T14:23:28.033Z,56.02
2018-03-11T14:24:28.073Z,55.93
2018-03-11T14:25:28.040Z,56.31
2018-03-11T14:26:28.085Z,55.64
2018-03-11T14:27:28.102Z,55.55
2018-03-11T14:28:28.089Z,56.31
2018-03-11T14:29:28.128Z,55.83
2018-03-11T14:30:28.169Z,55.45
2018-03-11T14:31:28.143Z,55.74
2018-03-11T14:32:28.137Z,56.41
2018-03-11T14:33:28.188Z,56.02
2018-03-11T14:34:28.256Z,56.31
2018-03-11T14:35:28.186Z,55.64
2018-03-11T14:36:28.196Z,55.83
2018-03-11T14:37:28.209Z,56.02
2018-03-11T14:38:28.273Z,56.02
2018-03-11T14:39:28.259Z,55.55
2018-03-11T14:40:28.247Z,55.45
2018-03-11T14:41:28.288Z,55.55
2018-03-11T14:42:28.280Z,56.02
2018-03-11T14:43:28.353Z,55.93
2018-03-11T14:44:28.309Z,55.93
2018-03-11T14:45:28.330Z,56.22
2018-03-11T14:46:28.331Z,56.12
2018-03-11T14:47:28.352Z,56.22
2018-03-11T14:48:28.406Z,56.12
2018-03-11T14:49:28.388Z,56.89
2018-03-11T14:50:28.394Z,55.93
2018-03-11T14:51:28.404Z,55.93
2018-03-11T14:52:28.420Z,56.12
2018-03-11T14:53:28.471Z,55.93
2018-03-11T14:54:28.477Z,56.31
2018-03-11T14:55:28.483Z,56.02
2018-03-11T14:56:28.749Z,55.45
2018-03-11T14:57:28.494Z,55.83
2018-03-11T14:58:28.510Z,56.02
2018-03-11T14:59:28.541Z,56.12
2018-03-11T15:00:28.579Z,55.83
2018-03-11T15:01:28.588Z,56.31
2018-03-11T15:02:28.595Z,55.45
2018-03-11T15:03:28.640Z,55.74
2018-03-11T15:04:28.638Z,56.12
2018-03-11T15:05:28.629Z,55.64
2018-03-11T15:06:28.637Z,55.45
